This is the latest recevied weather packets stored in our database for station/object KG7DQI-13. If no packets are shown the sender has not sent any weather packets the latest 1 day(s).
| Time | Temp. | Humidity | Pressure | Rain* | Wind** | Luminosity | Snow |
|---|---|---|---|---|---|---|---|
| 1778099902 | 27.78° C | 28% | 915.4 hPa | 0 mm | - | 875 W/m² | - |
| 1778097209 | 26.11° C | 26% | 915.8 hPa | 0 mm | - | 886 W/m² | - |
| 1778094567 | 26.11° C | 31% | 916.2 hPa | 0 mm | - | 865 W/m² | - |
| 1778091895 | 25.56° C | 31% | 916.5 hPa | 0 mm | - | 821 W/m² | - |
| 1778087366 | 23.33° C | 41% | 916.7 hPa | 0 mm | - | 682 W/m² | - |
| 1778085571 | 22.78° C | 43% | 916.7 hPa | 0 mm | - | 612 W/m² | - |
| 1778075531 | 9.44° C | 76% | 916.1 hPa | 0 mm | - | 84 W/m² | - |
| 1778072754 | 5.56° C | 87% | 915.6 hPa | 0 mm | - | 9 W/m² | - |
| 1778071881 | 6.11° C | 84% | 915.6 hPa | 0 mm | - | 0 W/m² | - |
| 1778070987 | 7.22° C | 83% | 915.5 hPa | 0 mm | - | 0 W/m² | - |
| 1778070047 | 7.22° C | 83% | 915.4 hPa | 0 mm | - | 0 W/m² | - |
| 1778067298 | 7.78° C | 84% | 914.9 hPa | 0 mm | - | 0 W/m² | - |
| 1778065511 | 8.33° C | 83% | 914.8 hPa | 0 mm | - | 0 W/m² | - |
| 1778062794 | 9.44° C | 79% | 914.7 hPa | 0 mm | - | 0 W/m² | - |
| 1778061854 | 10.56° C | 80% | 914.8 hPa | 0 mm | - | 0 W/m² | - |
| 1778060938 | 10.56° C | 81% | 914.8 hPa | 0 mm | - | 0 W/m² | - |
| 1778060051 | 11.11° C | 79% | 914.8 hPa | 0 mm | - | 0 W/m² | - |
| 1778059156 | 11.11° C | 80% | 914.8 hPa | 0 mm | - | 0 W/m² | - |
| 1778058251 | 11.11° C | 81% | 914.8 hPa | 0 mm | - | 0 W/m² | - |
| 1778057305 | 10.56° C | 82% | 914.8 hPa | 0 mm | - | 0 W/m² | - |
| 1778056361 | 11.11° C | 78% | 914.7 hPa | 0 mm | - | 0 W/m² | - |
| 1778054577 | 11.67° C | 78% | 914.6 hPa | 0 mm | - | 0 W/m² | - |
| 1778052742 | 12.78° C | 74% | 914.2 hPa | 0 mm | - | 0 W/m² | - |
| 1778051870 | 12.78° C | 74% | 914.2 hPa | 0 mm | - | 0 W/m² | - |
| 1778051004 | 13.33° C | 72% | 914.1 hPa | 0 mm | - | 0 W/m² | - |
* Rain latest hour (hover to see other rain measurements)
** Current wind speed in m/s (hover to see current wind gust speed)